Aviation Digital Data Service (ADDS)

Output produced by METARs form (1937 UTC 25 March 2017)
found at http://www.aviationweather.gov/adds/metars/
 
LYPG 251930Z 19003KT CAVOK 14/11 Q1018 NOSIG
TAF LYPG 251700Z 2518/2618 16006KT 9999 FEW040 SCT090 TX19/2612Z TN08/2605Z 
     TEMPO 2612/2618 RA 
     PROB40 
     TEMPO 2612/2616 VRB15G25KT 5000 TSRA FEW030CB BKN040
       
LYTV 251930Z VRB02KT 9999 FEW010 10/09 Q1018
TAF LYTV 251700Z 2518/2618 17010KT 9999 SCT050 TX20/2612Z TN07/2603Z 
     PROB40 
     TEMPO 2612/2618 5000 RA